MMVR/VER METAR and TAF weather

Enter ICAO airport designator
Station Type Date Time Source
MMVR METAR 2021/04/17 02:47 UTC NOAA

MMVR 170247Z 00000KT 6SM SKC 26/25 A2966 RMK SLP009 52005 974 HZY


Station Type Date Time Source
MMVR Decoded METAR 2021/04/17 02:47 UTC NOAA

Veracruz / Las Bajadas / General Heriberto Jara, Mexico (MMVR) 19-09N 096-11W
Apr 16, 2021 - 10:47 PM EDT / 2021.04.17 0247 UTC
Wind: Calm:0
Visibility: 6 mile(s):0
Sky conditions: clear
Temperature: 78 F (26 C)
Dew Point: 77 F (25 C)
Relative Humidity: 94%
Pressure (altimeter): 29.66 in. Hg (1004 hPa)
Pressure tendency: 0.01 inches (0.5 hPa) higher than three hours ago
ob: MMVR 170247Z 00000KT 6SM SKC 26/25 A2966 RMK SLP009 52005 974 HZY
cycle: 3

Station Type Date Time Source
MMVR TAF 2021/04/16 18:26 UTC NOAA

TAF MMVR 161723Z 1618/1718 15006KT 5SM HZ SKC TX37/1622Z TN24/1713Z
BECMG 1620/1621 07012KT SCT020 BKN250
FM170200 00000KT P6SM SCT250
BECMG 1705/1706 15005KT
FM171000 15008KT 6SM HZ SCT020 BKN250

Example: see airport list